createdAt,value
2023-05-08T00:01:58.392Z,17.10
2023-05-08T00:04:24.895Z,17.10
2023-05-08T00:06:51.388Z,17.00
2023-05-08T00:09:17.851Z,17.00
2023-05-08T00:11:44.342Z,17.10
2023-05-08T00:14:13.718Z,17.00
2023-05-08T00:16:40.242Z,17.00
2023-05-08T00:19:06.786Z,17.00
2023-05-08T00:21:33.256Z,17.00
2023-05-08T00:23:59.727Z,17.00
2023-05-08T00:26:26.208Z,17.00
2023-05-08T00:28:52.702Z,17.00
2023-05-08T00:31:19.183Z,17.00
2023-05-08T00:33:45.802Z,17.00
2023-05-08T00:36:15.070Z,17.00
2023-05-08T00:38:41.567Z,17.00
2023-05-08T00:41:09.066Z,17.00
2023-05-08T00:43:35.557Z,17.00
2023-05-08T00:46:02.265Z,17.00
2023-05-08T00:48:28.902Z,17.00
2023-05-08T00:50:55.377Z,17.00
2023-05-08T00:53:27.093Z,17.00
2023-05-08T00:55:53.585Z,17.00
2023-05-08T00:58:20.068Z,17.00
2023-05-08T01:00:46.540Z,17.00
2023-05-08T01:03:13.128Z,17.00
2023-05-08T01:05:39.663Z,17.00
2023-05-08T01:08:06.176Z,17.00
2023-05-08T01:10:32.652Z,17.00
2023-05-08T01:12:59.156Z,17.00
2023-05-08T01:15:25.667Z,17.00
2023-05-08T01:17:52.182Z,17.00
2023-05-08T01:20:18.680Z,17.00
2023-05-08T01:22:45.159Z,17.00
2023-05-08T01:25:11.818Z,17.00
2023-05-08T01:27:38.326Z,17.00
2023-05-08T01:30:04.809Z,17.00
2023-05-08T01:32:31.412Z,17.00
2023-05-08T01:34:58.047Z,17.00
2023-05-08T01:37:24.518Z,17.00
2023-05-08T01:39:51.006Z,17.00
2023-05-08T01:42:21.122Z,17.00
2023-05-08T01:44:47.637Z,17.00
2023-05-08T01:47:14.125Z,17.00
2023-05-08T01:49:40.631Z,17.00
2023-05-08T01:52:07.184Z,17.00
2023-05-08T01:54:33.678Z,16.90
2023-05-08T01:57:00.155Z,17.00
2023-05-08T01:59:26.659Z,17.00
2023-05-08T02:01:53.201Z,17.00
2023-05-08T02:04:19.700Z,17.00
2023-05-08T02:06:46.280Z,17.00
2023-05-08T02:09:15.151Z,16.90
2023-05-08T02:11:41.604Z,16.90
2023-05-08T02:14:08.082Z,17.00
2023-05-08T02:16:34.564Z,17.00
2023-05-08T02:19:01.106Z,17.00
2023-05-08T02:21:27.576Z,16.90
2023-05-08T02:23:54.070Z,17.00
2023-05-08T02:26:20.550Z,17.00
2023-05-08T02:28:47.042Z,16.90
2023-05-08T02:31:13.528Z,17.00
2023-05-08T02:33:40.034Z,16.90
2023-05-08T02:36:06.556Z,16.90
2023-05-08T02:38:33.050Z,16.90
2023-05-08T02:40:59.551Z,17.00
2023-05-08T02:43:26.036Z,16.90
2023-05-08T02:45:52.596Z,16.90
2023-05-08T02:48:19.151Z,16.90
2023-05-08T02:50:45.660Z,16.90
2023-05-08T02:53:12.128Z,16.90
2023-05-08T02:55:38.652Z,16.90
2023-05-08T02:58:05.131Z,16.90
2023-05-08T03:00:31.579Z,16.90
2023-05-08T03:02:58.134Z,16.90
2023-05-08T03:05:24.667Z,16.90
2023-05-08T03:07:51.165Z,16.90
2023-05-08T03:10:17.662Z,16.90
2023-05-08T03:12:44.151Z,16.90
2023-05-08T03:15:10.664Z,16.90
2023-05-08T03:17:37.262Z,16.90
2023-05-08T03:20:09.218Z,16.90
2023-05-08T03:22:35.694Z,16.90
2023-05-08T03:25:02.182Z,16.90
2023-05-08T03:27:28.663Z,16.90
2023-05-08T03:29:55.133Z,16.90
2023-05-08T03:32:21.660Z,16.90
2023-05-08T03:34:48.171Z,16.90
2023-05-08T03:37:14.682Z,16.90
2023-05-08T03:39:41.170Z,16.90
2023-05-08T03:42:07.676Z,16.90
2023-05-08T03:44:34.152Z,16.90
2023-05-08T03:47:00.702Z,16.90
2023-05-08T03:49:27.200Z,16.90
2023-05-08T03:51:53.699Z,16.90
2023-05-08T03:54:20.195Z,16.90
2023-05-08T03:56:46.688Z,16.90
2023-05-08T03:59:13.167Z,16.90
2023-05-08T04:01:39.652Z,16.90
2023-05-08T04:04:06.170Z,16.90
2023-05-08T04:06:42.160Z,16.90
2023-05-08T04:09:21.315Z,16.90
2023-05-08T04:11:47.788Z,16.90
2023-05-08T04:14:14.284Z,16.90
2023-05-08T04:16:40.793Z,16.80
2023-05-08T04:19:07.303Z,16.90
2023-05-08T04:21:33.760Z,16.90
2023-05-08T04:24:00.244Z,16.90
2023-05-08T04:26:26.716Z,16.90
2023-05-08T04:28:57.278Z,16.90
2023-05-08T04:31:23.802Z,16.90
2023-05-08T04:33:50.455Z,16.90
2023-05-08T04:36:16.934Z,16.90
2023-05-08T04:38:45.293Z,16.90
2023-05-08T04:41:11.795Z,16.90
2023-05-08T04:43:38.331Z,16.90
2023-05-08T04:46:04.821Z,16.90
2023-05-08T04:48:31.308Z,16.90
2023-05-08T04:50:57.795Z,16.90
2023-05-08T04:53:24.267Z,16.90
2023-05-08T04:55:50.752Z,16.80
2023-05-08T04:58:21.353Z,16.80
2023-05-08T05:00:48.680Z,16.80
2023-05-08T05:03:15.236Z,16.80
2023-05-08T05:05:41.792Z,16.80
2023-05-08T05:08:08.331Z,16.80
2023-05-08T05:10:34.869Z,16.80
2023-05-08T05:13:01.359Z,16.80
2023-05-08T05:15:27.874Z,16.90
2023-05-08T05:17:54.371Z,16.80
2023-05-08T05:20:20.861Z,16.90
2023-05-08T05:22:47.328Z,16.90
2023-05-08T05:28:04.613Z,16.90
2023-05-08T05:30:31.084Z,16.80
2023-05-08T05:32:57.607Z,16.90
2023-05-08T05:35:25.578Z,16.80
2023-05-08T05:37:52.377Z,16.80
2023-05-08T05:40:18.860Z,16.80
2023-05-08T05:42:45.353Z,16.90
2023-05-08T05:45:11.958Z,16.80
2023-05-08T05:47:38.582Z,16.90
2023-05-08T05:50:05.088Z,16.90
2023-05-08T05:52:31.598Z,16.90
2023-05-08T05:55:01.109Z,16.90
2023-05-08T05:57:27.637Z,16.90
2023-05-08T05:59:54.840Z,16.90
2023-05-08T06:02:21.580Z,16.80
2023-05-08T06:04:48.141Z,16.90
2023-05-08T06:07:14.610Z,16.90
2023-05-08T06:09:41.082Z,16.90
2023-05-08T06:12:07.571Z,16.90
2023-05-08T06:14:34.048Z,16.90
2023-05-08T06:17:03.405Z,16.90
2023-05-08T06:19:29.938Z,16.90
2023-05-08T06:21:57.356Z,16.90
2023-05-08T06:24:23.818Z,16.90
2023-05-08T06:26:50.311Z,16.90
2023-05-08T06:29:16.849Z,16.90
2023-05-08T06:31:43.327Z,16.90
2023-05-08T06:34:09.845Z,16.90
2023-05-08T06:36:39.367Z,16.90
2023-05-08T06:39:05.859Z,16.90
2023-05-08T06:41:32.350Z,16.90
2023-05-08T06:43:58.857Z,16.90
2023-05-08T06:46:28.161Z,16.90
2023-05-08T06:48:54.716Z,16.90
2023-05-08T06:51:21.203Z,16.90
2023-05-08T06:53:47.693Z,16.90
2023-05-08T06:56:15.351Z,16.90
2023-05-08T06:58:41.807Z,16.90
2023-05-08T07:01:09.435Z,16.90
2023-05-08T07:03:35.925Z,16.90
2023-05-08T07:06:02.398Z,16.90
2023-05-08T07:08:33.408Z,17.00
2023-05-08T07:10:59.879Z,16.90
2023-05-08T07:13:26.408Z,16.90
2023-05-08T07:15:52.903Z,16.90
2023-05-08T07:18:19.409Z,16.90
2023-05-08T07:20:45.920Z,16.90
2023-05-08T07:23:12.382Z,16.90
2023-05-08T07:25:38.851Z,16.90
2023-05-08T07:28:05.466Z,16.90
2023-05-08T07:30:31.966Z,16.90
2023-05-08T07:32:58.619Z,16.90
2023-05-08T07:35:25.149Z,16.90
2023-05-08T07:37:51.631Z,16.90
2023-05-08T07:40:18.122Z,16.90
2023-05-08T07:42:44.581Z,16.90
2023-05-08T07:45:11.218Z,17.00
2023-05-08T07:47:37.907Z,16.90
2023-05-08T07:50:04.411Z,16.90
2023-05-08T07:52:30.895Z,17.00
2023-05-08T07:54:57.393Z,16.90
2023-05-08T07:57:23.864Z,16.90
2023-05-08T07:59:50.350Z,17.00
2023-05-08T08:02:16.897Z,16.90
2023-05-08T08:04:43.427Z,16.90
2023-05-08T08:07:09.908Z,16.90
2023-05-08T08:09:36.377Z,17.00
2023-05-08T08:12:02.914Z,17.00
2023-05-08T08:14:29.411Z,17.00
2023-05-08T08:16:55.916Z,17.00
2023-05-08T08:19:22.481Z,17.00
2023-05-08T08:21:48.981Z,17.00
2023-05-08T08:24:15.461Z,17.00
2023-05-08T08:26:41.941Z,17.00
2023-05-08T08:29:08.447Z,17.00
2023-05-08T08:31:35.320Z,17.00
2023-05-08T08:34:01.938Z,17.00
2023-05-08T08:36:28.423Z,17.00
2023-05-08T08:38:54.903Z,17.00
2023-05-08T08:41:21.396Z,17.00
2023-05-08T08:43:47.911Z,17.00
2023-05-08T08:46:15.629Z,17.00
2023-05-08T08:48:42.162Z,17.00
2023-05-08T08:51:08.639Z,17.00
2023-05-08T08:53:35.104Z,17.00
2023-05-08T08:56:01.589Z,17.00
2023-05-08T08:58:28.064Z,17.00
2023-05-08T09:00:54.530Z,17.00
2023-05-08T09:03:21.243Z,17.00
2023-05-08T09:05:47.843Z,17.00
2023-05-08T09:08:14.313Z,17.00
2023-05-08T09:10:40.823Z,17.10
2023-05-08T09:13:07.360Z,17.00
2023-05-08T09:15:33.866Z,17.00
2023-05-08T09:18:00.353Z,17.00
2023-05-08T09:20:26.836Z,17.10
2023-05-08T09:22:53.298Z,17.10
2023-05-08T09:25:19.795Z,17.10
2023-05-08T09:27:46.262Z,17.00
2023-05-08T09:30:12.745Z,17.10
2023-05-08T09:32:39.540Z,17.00
2023-05-08T09:35:06.037Z,17.00
2023-05-08T09:37:32.524Z,17.00
2023-05-08T09:39:59.020Z,17.10
2023-05-08T09:42:25.487Z,17.10
2023-05-08T09:44:51.964Z,17.10
2023-05-08T09:47:18.461Z,17.10
2023-05-08T09:49:44.932Z,17.10
2023-05-08T09:52:11.432Z,17.10
2023-05-08T09:54:37.925Z,17.10
2023-05-08T09:57:04.451Z,17.10
2023-05-08T09:59:33.354Z,17.10
2023-05-08T10:02:00.612Z,17.10
2023-05-08T10:04:27.122Z,17.10
2023-05-08T10:06:56.398Z,17.10
2023-05-08T10:09:23.018Z,17.10
2023-05-08T10:11:49.484Z,17.10
2023-05-08T10:14:16.000Z,17.10
2023-05-08T10:16:42.552Z,17.10
2023-05-08T10:19:09.557Z,17.10
2023-05-08T10:21:36.001Z,17.10
2023-05-08T10:24:02.480Z,17.10
2023-05-08T10:26:28.948Z,17.10
2023-05-08T10:28:55.439Z,17.10
2023-05-08T10:31:22.014Z,17.20
2023-05-08T10:33:48.680Z,17.10
2023-05-08T10:36:15.171Z,17.10
2023-05-08T10:38:41.650Z,17.10
2023-05-08T10:41:08.188Z,17.10
2023-05-08T10:43:34.671Z,17.10
2023-05-08T10:46:01.205Z,17.20
2023-05-08T10:48:27.838Z,17.10
2023-05-08T10:50:54.373Z,17.10
2023-05-08T10:53:21.549Z,17.10
2023-05-08T10:55:48.015Z,17.10
2023-05-08T10:58:14.491Z,17.10
2023-05-08T11:00:40.974Z,17.10
2023-05-08T11:03:16.918Z,17.10
2023-05-08T11:05:51.621Z,17.10
2023-05-08T11:08:18.102Z,17.10
2023-05-08T11:10:45.608Z,17.20
2023-05-08T11:13:12.136Z,17.20
2023-05-08T11:15:38.647Z,17.10
2023-05-08T11:18:05.191Z,17.20
2023-05-08T11:20:32.304Z,17.20
2023-05-08T11:22:58.806Z,17.10
2023-05-08T11:25:25.285Z,17.20
2023-05-08T11:27:51.788Z,17.20
2023-05-08T11:30:18.275Z,17.20
2023-05-08T11:32:44.822Z,17.20
2023-05-08T11:35:11.351Z,17.20
2023-05-08T11:37:37.840Z,17.20
2023-05-08T11:40:04.330Z,17.20
2023-05-08T11:42:30.846Z,17.20
2023-05-08T11:44:57.317Z,17.20
2023-05-08T11:47:23.926Z,17.20
2023-05-08T11:49:50.406Z,17.20
2023-05-08T11:52:16.904Z,17.20
2023-05-08T11:54:43.361Z,17.20
2023-05-08T11:57:09.844Z,17.20
2023-05-08T11:59:36.327Z,17.20
2023-05-08T12:02:08.673Z,17.20
2023-05-08T12:04:35.985Z,17.20
2023-05-08T12:07:03.675Z,17.20
2023-05-08T12:09:30.145Z,17.30
2023-05-08T12:11:56.624Z,17.20
2023-05-08T12:14:23.111Z,17.20
2023-05-08T12:16:49.628Z,17.20
2023-05-08T12:19:16.099Z,17.20
2023-05-08T12:21:45.680Z,17.20
2023-05-08T12:24:12.183Z,17.20
2023-05-08T12:26:38.788Z,17.20
2023-05-08T12:29:05.303Z,17.30
2023-05-08T12:31:31.850Z,17.30
2023-05-08T12:33:58.376Z,17.20
2023-05-08T12:36:24.845Z,17.20
2023-05-08T12:38:51.352Z,17.30
2023-05-08T12:41:17.807Z,17.20
2023-05-08T12:43:44.265Z,17.20
2023-05-08T12:46:10.822Z,17.20
2023-05-08T12:48:39.677Z,17.30
2023-05-08T12:51:06.174Z,17.30
2023-05-08T12:53:32.665Z,17.20
2023-05-08T12:55:59.153Z,17.20
2023-05-08T12:58:25.648Z,17.30
2023-05-08T13:00:52.132Z,17.30
2023-05-08T13:03:18.679Z,17.30
2023-05-08T13:05:45.230Z,17.30
2023-05-08T13:08:11.720Z,17.30
2023-05-08T13:10:38.190Z,17.30
2023-05-08T13:13:04.786Z,17.30
2023-05-08T13:15:31.289Z,17.30
2023-05-08T13:17:57.848Z,17.30
2023-05-08T13:20:24.324Z,17.30
2023-05-08T13:22:50.806Z,17.30
2023-05-08T13:25:17.288Z,17.30
2023-05-08T13:27:45.719Z,17.30
2023-05-08T13:30:12.317Z,17.30
2023-05-08T13:32:39.011Z,17.30
2023-05-08T13:35:05.539Z,17.30
2023-05-08T13:37:32.053Z,17.30
2023-05-08T13:39:58.565Z,17.30
2023-05-08T13:42:25.038Z,17.40
2023-05-08T13:44:51.520Z,17.30
2023-05-08T13:47:33.897Z,17.30
2023-05-08T13:50:00.540Z,17.30
2023-05-08T13:52:27.012Z,17.40
2023-05-08T13:54:53.484Z,17.40
2023-05-08T13:57:19.968Z,17.40
2023-05-08T13:59:46.434Z,17.30
2023-05-08T14:02:13.015Z,17.30
2023-05-08T14:04:39.585Z,17.30
2023-05-08T14:07:06.056Z,17.40
2023-05-08T14:09:32.564Z,17.30
2023-05-08T14:11:59.049Z,17.40
2023-05-08T14:14:25.525Z,17.40
2023-05-08T14:16:51.991Z,17.40
2023-05-08T14:19:18.476Z,17.40
2023-05-08T14:21:44.969Z,17.40
2023-05-08T14:24:11.450Z,17.40
2023-05-08T14:26:37.950Z,17.40
2023-05-08T14:29:04.456Z,17.40
2023-05-08T14:31:31.084Z,17.40
2023-05-08T14:33:57.610Z,17.40
2023-05-08T14:36:24.116Z,17.50
2023-05-08T14:38:50.607Z,17.40
2023-05-08T14:41:17.114Z,17.50
2023-05-08T14:43:43.595Z,17.40
2023-05-08T14:46:10.118Z,17.40
2023-05-08T14:48:36.632Z,17.40
2023-05-08T14:51:03.125Z,17.40
2023-05-08T14:53:29.750Z,17.40
2023-05-08T14:55:56.422Z,17.40
2023-05-08T14:58:23.071Z,17.40
2023-05-08T15:00:49.535Z,17.40
2023-05-08T15:03:16.144Z,17.40
2023-05-08T15:05:42.810Z,17.40
2023-05-08T15:08:09.296Z,17.50
2023-05-08T15:10:35.779Z,17.50
2023-05-08T15:13:02.285Z,17.50
2023-05-08T15:15:28.784Z,17.50
2023-05-08T15:17:55.341Z,17.50
2023-05-08T15:20:27.815Z,17.50
2023-05-08T15:22:54.299Z,17.50
2023-05-08T15:25:20.806Z,17.50
2023-05-08T15:30:37.716Z,17.50
2023-05-08T15:33:04.266Z,17.50
2023-05-08T15:35:30.779Z,17.50
2023-05-08T15:37:57.279Z,17.50
2023-05-08T15:40:23.764Z,17.50
2023-05-08T15:42:50.247Z,17.50
2023-05-08T15:45:16.806Z,17.60
2023-05-08T15:47:43.374Z,17.50
2023-05-08T15:50:09.896Z,17.50
2023-05-08T15:52:36.384Z,17.50
2023-05-08T15:55:02.885Z,17.50
2023-05-08T15:57:29.370Z,17.50
2023-05-08T15:59:55.835Z,17.50
2023-05-08T16:02:22.403Z,17.60
2023-05-08T16:04:49.022Z,17.50
2023-05-08T16:07:15.503Z,17.60
2023-05-08T16:09:42.017Z,17.60
2023-05-08T16:12:08.498Z,17.60
2023-05-08T16:14:35.006Z,17.60
2023-05-08T16:17:01.485Z,17.60
2023-05-08T16:19:27.977Z,17.60
2023-05-08T16:21:54.460Z,17.60
2023-05-08T16:24:20.944Z,17.60
2023-05-08T16:26:47.414Z,17.70
2023-05-08T16:29:13.887Z,17.70
2023-05-08T16:31:40.394Z,17.70
2023-05-08T16:34:06.897Z,17.60
2023-05-08T16:36:33.373Z,17.70
2023-05-08T16:38:59.860Z,17.70
2023-05-08T16:41:26.336Z,17.60
2023-05-08T16:43:52.826Z,17.70
2023-05-08T16:46:28.978Z,17.70
2023-05-08T16:48:56.249Z,17.70
2023-05-08T16:51:22.773Z,17.60
2023-05-08T16:53:51.873Z,17.70
2023-05-08T16:56:18.358Z,17.70
2023-05-08T16:58:44.851Z,17.70
2023-05-08T17:01:11.373Z,17.70
2023-05-08T17:03:37.916Z,17.70
2023-05-08T17:06:09.899Z,17.70
2023-05-08T17:08:36.364Z,17.70
2023-05-08T17:11:02.850Z,17.70
2023-05-08T17:13:29.399Z,17.70
2023-05-08T17:15:56.109Z,17.70
2023-05-08T17:18:22.641Z,17.70
2023-05-08T17:20:51.913Z,17.70
2023-05-08T17:23:18.404Z,17.70
2023-05-08T17:25:44.878Z,17.60
2023-05-08T17:28:11.347Z,17.70
2023-05-08T17:30:37.841Z,17.60
2023-05-08T17:33:04.366Z,17.60
2023-05-08T17:35:33.924Z,17.60
2023-05-08T17:38:00.386Z,17.70
2023-05-08T17:40:26.878Z,17.70
2023-05-08T17:42:53.408Z,17.70
2023-05-08T17:45:19.900Z,17.60
2023-05-08T17:47:46.413Z,17.70
2023-05-08T17:50:13.192Z,17.60
2023-05-08T17:52:39.874Z,17.60
2023-05-08T17:55:06.342Z,17.70
2023-05-08T17:57:32.848Z,17.60
2023-05-08T17:59:59.343Z,17.60
2023-05-08T18:02:25.915Z,17.60
2023-05-08T18:04:52.429Z,17.60
2023-05-08T18:07:18.930Z,17.60
2023-05-08T18:09:45.497Z,17.70
2023-05-08T18:12:15.973Z,17.60
2023-05-08T18:14:42.458Z,17.60
2023-05-08T18:17:08.945Z,17.60
2023-05-08T18:19:35.421Z,17.60
2023-05-08T18:22:01.951Z,17.60
2023-05-08T18:24:28.452Z,17.60
2023-05-08T18:26:54.941Z,17.60
2023-05-08T18:29:21.444Z,17.60
2023-05-08T18:31:52.147Z,17.60
2023-05-08T18:34:18.733Z,17.60
2023-05-08T18:36:45.207Z,17.60
2023-05-08T18:39:15.973Z,17.60
2023-05-08T18:41:46.020Z,17.60
2023-05-08T18:44:12.511Z,17.60
2023-05-08T18:46:39.063Z,17.60
2023-05-08T18:49:05.599Z,17.60
2023-05-08T18:51:32.110Z,17.60
2023-05-08T18:53:58.595Z,17.60
2023-05-08T18:56:25.078Z,17.60
2023-05-08T18:58:51.580Z,17.60
2023-05-08T19:01:18.174Z,17.60
2023-05-08T19:03:44.859Z,17.60
2023-05-08T19:06:11.421Z,17.70
2023-05-08T19:08:37.888Z,17.60
2023-05-08T19:11:04.365Z,17.60
2023-05-08T19:13:30.866Z,17.60
2023-05-08T19:15:57.406Z,17.60
2023-05-08T19:18:23.902Z,17.60
2023-05-08T19:20:50.394Z,17.60
2023-05-08T19:23:16.864Z,17.60
2023-05-08T19:25:43.335Z,17.60
2023-05-08T19:28:09.825Z,17.60
2023-05-08T19:30:36.295Z,17.60
2023-05-08T19:33:02.768Z,17.60
2023-05-08T19:35:29.255Z,17.60
2023-05-08T19:37:55.729Z,17.60
2023-05-08T19:40:22.185Z,17.60
2023-05-08T19:42:48.658Z,17.60
2023-05-08T19:45:15.145Z,17.60
2023-05-08T19:47:41.647Z,17.60
2023-05-08T19:50:08.146Z,17.60
2023-05-08T19:52:34.608Z,17.60
2023-05-08T19:55:01.097Z,17.50
2023-05-08T19:57:27.579Z,17.50
2023-05-08T19:59:54.059Z,17.50
2023-05-08T20:02:20.699Z,17.50
2023-05-08T20:05:18.822Z,17.50
2023-05-08T20:07:38.489Z,17.50
2023-05-08T20:10:05.048Z,17.50
2023-05-08T20:12:34.054Z,17.50
2023-05-08T20:15:00.541Z,17.50
2023-05-08T20:17:27.086Z,17.60
2023-05-08T20:19:53.657Z,17.50
2023-05-08T20:22:20.210Z,17.50
2023-05-08T20:24:46.673Z,17.50
2023-05-08T20:27:13.129Z,17.50
2023-05-08T20:29:39.596Z,17.50
2023-05-08T20:32:06.123Z,17.50
2023-05-08T20:34:32.574Z,17.50
2023-05-08T20:36:59.040Z,17.50
2023-05-08T20:39:25.514Z,17.50
2023-05-08T20:41:51.969Z,17.50
2023-05-08T20:44:18.445Z,17.50
2023-05-08T20:46:44.918Z,17.50
2023-05-08T20:49:11.414Z,17.50
2023-05-08T20:51:37.907Z,17.60
2023-05-08T20:54:04.414Z,17.50
2023-05-08T20:56:30.909Z,17.50
2023-05-08T20:58:57.395Z,17.50
2023-05-08T21:01:23.909Z,17.50
2023-05-08T21:03:50.410Z,17.50
2023-05-08T21:06:16.889Z,17.50
2023-05-08T21:08:43.399Z,17.50
2023-05-08T21:11:09.841Z,17.50
2023-05-08T21:13:36.348Z,17.50
2023-05-08T21:16:02.850Z,17.50
2023-05-08T21:18:29.373Z,17.50
2023-05-08T21:20:55.865Z,17.50
2023-05-08T21:23:22.347Z,17.50
2023-05-08T21:25:48.832Z,17.50
2023-05-08T21:28:15.342Z,17.50
2023-05-08T21:30:41.818Z,17.50
2023-05-08T21:33:08.323Z,17.50
2023-05-08T21:35:34.793Z,17.50
2023-05-08T21:38:01.265Z,17.50
2023-05-08T21:40:27.766Z,17.50
2023-05-08T21:42:54.271Z,17.50
2023-05-08T21:45:20.742Z,17.50
2023-05-08T21:47:47.259Z,17.40
2023-05-08T21:50:13.760Z,17.50
2023-05-08T21:52:40.241Z,17.50
2023-05-08T21:55:06.908Z,17.50
2023-05-08T21:57:33.389Z,17.50
2023-05-08T21:59:59.884Z,17.40
2023-05-08T22:02:26.436Z,17.40
2023-05-08T22:04:53.055Z,17.40
2023-05-08T22:07:19.540Z,17.50
2023-05-08T22:09:46.043Z,17.40
2023-05-08T22:12:12.524Z,17.40
2023-05-08T22:14:39.040Z,17.40
2023-05-08T22:17:05.520Z,17.40
2023-05-08T22:19:32.010Z,17.40
2023-05-08T22:21:58.477Z,17.40
2023-05-08T22:24:24.966Z,17.40
2023-05-08T22:26:51.451Z,17.40
2023-05-08T22:29:17.933Z,17.40
2023-05-08T22:31:44.543Z,17.40
2023-05-08T22:34:11.096Z,17.40
2023-05-08T22:36:37.552Z,17.40
2023-05-08T22:39:04.032Z,17.40
2023-05-08T22:41:30.536Z,17.40
2023-05-08T22:43:57.010Z,17.40
2023-05-08T22:46:23.593Z,17.50
2023-05-08T22:48:50.127Z,17.40
2023-05-08T22:51:16.596Z,17.40
2023-05-08T22:53:43.098Z,17.40
2023-05-08T22:56:09.598Z,17.40
2023-05-08T22:58:36.067Z,17.40
2023-05-08T23:01:02.553Z,17.40
2023-05-08T23:03:29.040Z,17.40
2023-05-08T23:05:55.545Z,17.40
2023-05-08T23:08:22.010Z,17.40
2023-05-08T23:10:48.498Z,17.40
2023-05-08T23:13:15.127Z,17.40
2023-05-08T23:15:41.711Z,17.40
2023-05-08T23:18:08.241Z,17.40
2023-05-08T23:20:34.779Z,17.40
2023-05-08T23:23:04.343Z,17.40
2023-05-08T23:25:30.804Z,17.40
2023-05-08T23:27:57.292Z,17.40
2023-05-08T23:30:23.779Z,17.40
2023-05-08T23:32:50.323Z,17.40
2023-05-08T23:35:17.083Z,17.40
2023-05-08T23:37:43.641Z,17.40
2023-05-08T23:40:10.134Z,17.40
2023-05-08T23:42:36.610Z,17.40
2023-05-08T23:45:03.095Z,17.40
2023-05-08T23:47:29.629Z,17.40
2023-05-08T23:49:56.121Z,17.30
2023-05-08T23:52:22.622Z,17.40
2023-05-08T23:54:49.090Z,17.40
2023-05-08T23:57:15.591Z,17.40
2023-05-08T23:59:42.080Z,17.40
